CFG85E EDDL-LEBB
Flight info
| Callsign | CFG85E |
|---|---|
| Flight time | N/A |
| Altitude | 24000 |
| Route | MODRU7Z MODRU Z283 LNO/N0451F360 DCT RASCA DCT FAMEN/N0447F350 DCT AHVEC UN857 DISAK DCT ARKIP DCT ARNAV DCT LMG DCT UVELI DCT OSMOB DCT VAVIX/N0391F230 DCT BTZ DCT URUNA P181 SSN L176 CEGAM CEGAM4T |
| Aircraft | A321/M-SDE3FGHIRWY/LB1 |
Departure
| Time | 2026-05-07 08:59 |
|---|---|
| Airport | Düsseldorf Airport (EDDL) |
Arrival
| Time | N/A |
|---|---|
| Airport | Bilbao Airport (LEBB) |
| Time | Latitude | Longitude | Altitude | Speed | Heading |
|---|---|---|---|---|---|
| 2026-05-07 08:47 | 51.28584 | 6.77279 | 110 ft | 0 kts | 321° |
| 2026-05-07 08:51 | 51.28583 | 6.77282 | 137 ft | 3 kts | 322° |
| 2026-05-07 08:51 | 51.28563 | 6.77303 | 137 ft | 3 kts | 336° |
| 2026-05-07 08:51 | 51.28541 | 6.77313 | 137 ft | 3 kts | 4° |
| 2026-05-07 08:52 | 51.28521 | 6.77304 | 137 ft | 3 kts | 50° |
| 2026-05-07 08:52 | 51.28515 | 6.77291 | 137 ft | 1 kts | 59° |
| 2026-05-07 08:52 | 51.28515 | 6.77290 | 137 ft | 0 kts | 59° |
| 2026-05-07 08:53 | 51.28515 | 6.77291 | 137 ft | 1 kts | 59° |
| 2026-05-07 08:53 | 51.28515 | 6.77292 | 137 ft | 1 kts | 59° |
| 2026-05-07 08:54 | 51.28531 | 6.77334 | 137 ft | 12 kts | 59° |
| 2026-05-07 08:54 | 51.28601 | 6.77483 | 137 ft | 18 kts | 52° |
| 2026-05-07 08:54 | 51.28661 | 6.77639 | 137 ft | 15 kts | 84° |
| 2026-05-07 08:54 | 51.28700 | 6.77815 | 137 ft | 21 kts | 54° |
| 2026-05-07 08:55 | 51.28792 | 6.78007 | 137 ft | 22 kts | 52° |
| 2026-05-07 08:55 | 51.28884 | 6.78195 | 137 ft | 19 kts | 51° |
| 2026-05-07 08:55 | 51.28979 | 6.78248 | 137 ft | 16 kts | 327° |
| 2026-05-07 08:55 | 51.29095 | 6.78241 | 137 ft | 21 kts | 45° |
| 2026-05-07 08:56 | 51.29201 | 6.78401 | 137 ft | 21 kts | 36° |
| 2026-05-07 08:56 | 51.29339 | 6.78555 | 138 ft | 25 kts | 27° |
| 2026-05-07 08:56 | 51.29435 | 6.78569 | 139 ft | 0 kts | 355° |
| 2026-05-07 08:57 | 51.29459 | 6.78566 | 139 ft | 10 kts | 355° |
| 2026-05-07 08:57 | 51.29537 | 6.78545 | 143 ft | 7 kts | 317° |
| 2026-05-07 08:57 | 51.29526 | 6.78482 | 142 ft | 6 kts | 234° |
| 2026-05-07 08:58 | 51.29476 | 6.78372 | 141 ft | 25 kts | 232° |
| 2026-05-07 08:58 | 51.29239 | 6.77873 | 137 ft | 91 kts | 233° |
| 2026-05-07 08:58 | 51.28754 | 6.76878 | 136 ft | 134 kts | 226° |
| 2026-05-07 08:58 | 51.28123 | 6.75506 | 269 ft | 165 kts | 238° |
| 2026-05-07 08:59 | 51.27471 | 6.74037 | 974 ft | 161 kts | 235° |
| 2026-05-07 08:59 | 51.26886 | 6.72515 | 1523 ft | 165 kts | 255° |
| 2026-05-07 08:59 | 51.26915 | 6.70618 | 1776 ft | 182 kts | 295° |
| 2026-05-07 08:59 | 51.27763 | 6.69112 | 2184 ft | 187 kts | 334° |